Time;durP1;ratioP1;P1;durP2;ratioP2;P2;SDS_P1;SDS_P2;PMS_P1;PMS_P2;Temp;Humidity;BMP_temperature;BMP_pressure;BME280_temperature;BME280_humidity;BME280_pressure;Samples;Min_cycle;Max_cycle;Signal;HPM_P1;HPM_P2
2021/09/10 00:02:45;;;;;;;;;;;17.90;99.90;;;16.83;82.74;95654.06;10508300;28;2182;-76
2021/09/10 00:07:48;;;;;;;;;;;17.80;99.90;;;16.81;82.71;95655.50;10523754;28;2050;-76
2021/09/10 00:12:50;;;;;;;;;;;17.80;99.90;;;16.79;82.92;95657.72;10532451;28;2062;-76
2021/09/10 00:17:53;;;;;;;;;;;17.80;99.90;;;16.76;83.27;95648.31;10556845;28;2046;-76
2021/09/10 00:22:56;;;;;;;;;;;17.80;99.90;;;16.75;83.18;95652.94;10548245;28;2148;-77
2021/09/10 00:27:59;;;;;;;;;;;17.70;99.90;;;16.70;84.10;95653.06;10531704;28;2006;-76
2021/09/10 00:33:02;;;;;;;;;;;17.70;99.90;;;16.65;84.45;95653.19;10523234;28;2113;-76
2021/09/10 00:38:05;;;;;;;;;;;17.60;99.90;;;16.73;84.06;95649.75;10525983;28;2179;-78
2021/09/10 00:43:07;;;;;;;;;;;17.60;99.90;;;16.66;84.42;95648.56;10538328;28;2253;-78
2021/09/10 00:48:10;;;;;;;;;;;17.60;99.90;;;16.58;85.04;95658.28;10523474;28;2108;-76
2021/09/10 00:53:13;;;;;;;;;;;17.60;99.90;;;16.68;84.51;95657.19;10523354;28;2109;-77
2021/09/10 00:58:16;;;;;;;;;;;17.60;99.90;;;16.74;84.37;95664.91;10517274;28;2090;-77
2021/09/10 01:03:19;;;;;;;;;;;17.60;99.90;;;16.72;84.33;95669.84;10520742;28;2251;-77
2021/09/10 01:08:22;;;;;;;;;;;17.70;99.90;;;16.67;84.44;95664.53;10525595;28;2026;-77
2021/09/10 01:13:25;;;;;;;;;;;17.70;99.90;;;16.65;84.61;95663.25;10516102;28;2215;-77
2021/09/10 01:18:28;;;;;;;;;;;17.60;99.90;;;16.65;84.73;95666.75;10507174;28;2198;-77
2021/09/10 01:23:31;;;;;;;;;;;17.60;99.90;;;16.57;84.68;95661.31;10516280;28;2199;-76
2021/09/10 01:28:54;;;;;;;;;;;17.60;99.90;;;16.71;84.23;95672.88;10510045;28;2030;-76
2021/09/10 01:33:57;;;;;;;;;;;17.60;99.90;;;16.73;84.01;95667.91;10532835;28;2210;-78
2021/09/10 01:39:00;;;;;;;;;;;17.60;99.90;;;16.73;84.01;95676.88;10530362;28;2046;-75
2021/09/10 01:44:03;;;;;;;;;;;17.60;99.90;;;16.79;83.67;95668.56;10517659;28;2264;-77
2021/09/10 01:49:09;;;;;;;;;;;17.70;99.90;;;16.87;82.88;95671.34;10516735;28;2031;-76
2021/09/10 01:54:12;;;;;;;;;;;17.80;99.90;;;16.90;83.09;95676.13;10515230;28;2143;-77
2021/09/10 01:59:15;;;;;;;;;;;17.80;99.90;;;16.79;83.47;95679.44;10520709;28;2059;-77
2021/09/10 02:04:18;;;;;;;;;;;17.80;99.90;;;16.60;84.24;95672.31;10518144;28;2167;-76
2021/09/10 02:09:21;;;;;;;;;;;17.70;99.90;;;16.53;84.22;95674.69;10517229;28;2122;-77
2021/09/10 02:14:24;;;;;;;;;;;17.60;99.90;;;16.46;85.17;95679.78;10515433;28;2146;-77
2021/09/10 02:19:27;;;;;;;;;;;17.40;99.90;;;16.49;85.01;95676.44;10522060;28;2154;-75
2021/09/10 02:24:30;;;;;;;;;;;17.40;99.90;;;16.63;84.14;95681.75;10530141;28;2202;-76
2021/09/10 02:29:33;;;;;;;;;;;17.50;99.90;;;16.69;83.59;95669.66;10528546;28;2089;-77
2021/09/10 02:34:35;;;;;;;;;;;17.50;99.90;;;16.68;83.62;95671.56;10519519;28;2077;-77
2021/09/10 02:39:39;;;;;;;;;;;17.60;99.90;;;16.59;83.93;95670.72;10525219;28;2163;-76
2021/09/10 02:44:41;;;;;;;;;;;17.60;99.90;;;16.56;83.93;95670.56;10507146;28;2071;-75
2021/09/10 02:49:44;;;;;;;;;;;17.50;99.90;;;16.52;84.18;95673.09;10512366;28;2194;-76
2021/09/10 02:54:47;;;;;;;;;;;17.50;99.90;;;16.48;84.38;95669.44;10512171;28;2167;-78
2021/09/10 02:59:50;;;;;;;;;;;17.50;99.90;;;16.42;84.85;95673.38;10530039;28;2066;-75
2021/09/10 03:04:53;;;;;;;;;;;17.40;99.90;;;16.28;85.60;95659.09;10523854;28;2191;-76
2021/09/10 03:09:56;;;;;;;;;;;17.30;99.90;;;16.34;85.44;95663.28;10515080;28;2146;-77
2021/09/10 03:14:58;;;;;;;;;;;17.30;99.90;;;16.31;86.16;95659.28;10518272;28;2038;-77
2021/09/10 03:20:01;;;;;;;;;;;17.30;99.90;;;16.23;86.81;95653.84;10518878;28;2253;-75
2021/09/10 03:25:04;;;;;;;;;;;17.30;99.90;;;16.30;85.90;95654.19;10513351;28;2103;-77
2021/09/10 03:30:07;;;;;;;;;;;17.30;99.90;;;16.32;85.99;95657.38;10514082;28;2018;-76
2021/09/10 03:35:10;;;;;;;;;;;17.30;99.90;;;16.18;86.69;95652.06;10520664;28;2097;-77
2021/09/10 03:40:13;;;;;;;;;;;17.20;99.90;;;16.04;88.30;95648.66;10523328;28;2138;-76
2021/09/10 03:45:17;;;;;;;;;;;17.10;99.90;;;16.32;86.67;95638.38;10519784;28;2016;-76
2021/09/10 03:50:20;;;;;;;;;;;17.20;99.90;;;16.33;86.06;95640.00;10521195;28;2069;-76
2021/09/10 03:55:23;;;;;;;;;;;17.30;99.90;;;16.26;86.91;95645.06;10508627;28;2201;-76
2021/09/10 04:00:25;;;;;;;;;;;17.20;99.90;;;16.17;86.73;95640.41;10524237;28;2143;-77
2021/09/10 04:05:28;;;;;;;;;;;17.20;99.90;;;16.12;87.33;95640.53;10508586;28;2100;-75
2021/09/10 04:10:31;;;;;;;;;;;17.20;99.90;;;16.16;87.33;95636.09;10515270;28;2132;-76
2021/09/10 04:15:34;;;;;;;;;;;17.10;99.90;;;16.28;86.50;95638.19;10518819;28;2059;-75
2021/09/10 04:20:37;;;;;;;;;;;17.10;99.90;;;16.12;87.17;95639.75;10514528;28;2106;-75
2021/09/10 04:25:40;;;;;;;;;;;17.00;99.90;;;16.19;86.96;95640.88;10515434;28;2136;-77
2021/09/10 04:30:43;;;;;;;;;;;17.20;99.90;;;16.17;87.12;95631.47;10513603;28;2062;-77
2021/09/10 04:35:46;;;;;;;;;;;17.10;99.90;;;16.30;86.48;95640.63;10510372;28;2053;-77
2021/09/10 04:40:49;;;;;;;;;;;17.20;99.90;;;16.32;86.24;95643.81;10519303;28;2122;-76
2021/09/10 04:45:52;;;;;;;;;;;17.20;99.90;;;16.32;85.92;95639.19;10521132;28;2091;-76
2021/09/10 04:50:55;;;;;;;;;;;17.30;99.90;;;16.34;86.12;95653.22;10508166;28;2333;-74
2021/09/10 04:55:58;;;;;;;;;;;17.30;99.90;;;16.33;86.12;95650.84;10516702;28;2053;-75
2021/09/10 05:01:00;;;;;;;;;;;17.30;99.90;;;16.28;85.96;95650.97;10542295;28;1976;-74
2021/09/10 05:06:04;;;;;;;;;;;17.20;99.90;;;16.38;85.50;95648.00;10530837;28;2095;-74
2021/09/10 05:11:06;;;;;;;;;;;17.30;99.90;;;16.23;86.49;95643.00;10570395;28;1982;-73
2021/09/10 05:16:09;;;;;;;;;;;17.20;99.90;;;16.37;85.24;95640.97;10570540;28;2115;-73
2021/09/10 05:21:12;;;;;;;;;;;17.20;99.90;;;16.36;85.31;95639.38;10570488;28;2129;-74
2021/09/10 05:26:15;;;;;;;;;;;17.30;99.90;;;16.52;85.16;95650.59;10569339;28;2179;-76
2021/09/10 05:31:18;;;;;;;;;;;17.40;99.90;;;16.51;85.02;95657.13;10555594;28;2135;-75
2021/09/10 05:36:21;;;;;;;;;;;17.40;99.90;;;16.73;83.61;95660.59;10541857;28;2107;-77
2021/09/10 05:41:24;;;;;;;;;;;17.50;99.90;;;16.97;82.28;95664.78;10537002;28;2039;-77
2021/09/10 05:46:27;;;;;;;;;;;17.60;99.90;;;17.13;81.50;95665.94;10527899;28;2070;-76
2021/09/10 05:51:30;;;;;;;;;;;17.90;99.90;;;17.37;79.97;95667.38;10528150;28;2226;-75
2021/09/10 05:56:33;;;;;;;;;;;18.00;99.90;;;17.50;79.84;95663.75;10540200;28;2035;-77
2021/09/10 06:01:35;;;;;;;;;;;18.20;99.90;;;17.70;78.35;95667.72;10542536;28;2109;-77
2021/09/10 06:06:39;;;;;;;;;;;18.40;99.90;;;17.96;76.78;95673.16;10565814;28;2181;-75
2021/09/10 06:11:42;;;;;;;;;;;18.60;99.90;;;18.11;76.00;95672.63;10567594;28;1992;-75
2021/09/10 06:16:45;;;;;;;;;;;18.80;99.90;;;18.40;74.66;95668.41;10560853;28;2114;-76
2021/09/10 06:21:47;;;;;;;;;;;18.90;99.90;;;18.66;72.30;95668.28;10564546;28;2063;-77
2021/09/10 06:26:50;;;;;;;;;;;19.20;99.90;;;18.79;71.96;95664.56;10526839;28;2102;-76
2021/09/10 06:31:53;;;;;;;;;;;19.40;99.90;;;19.02;70.84;95659.63;10549120;28;2162;-76
2021/09/10 06:36:56;;;;;;;;;;;19.50;99.90;;;19.30;69.62;95666.16;10556030;28;2047;-76
2021/09/10 06:41:59;;;;;;;;;;;19.70;99.90;;;19.50;68.41;95670.03;10550741;28;2068;-77
2021/09/10 06:47:02;;;;;;;;;;;19.90;99.90;;;19.72;66.37;95666.16;10566545;28;1948;-80
2021/09/10 06:52:04;;;;;;;;;;;20.10;99.90;;;20.08;65.10;95662.00;10552674;28;2051;-77
2021/09/10 06:57:07;;;;;;;;;;;20.40;99.90;;;20.13;65.72;95670.75;10542841;28;2062;-77
2021/09/10 07:02:10;;;;;;;;;;;20.60;99.90;;;20.28;64.69;95672.03;10542453;28;2062;-77
2021/09/10 07:07:13;;;;;;;;;;;20.70;99.90;;;20.43;63.61;95678.81;10515648;28;2153;-76
2021/09/10 07:12:16;;;;;;;;;;;20.90;99.90;;;20.43;62.41;95674.13;10549949;28;1936;-77
2021/09/10 07:17:20;;;;;;;;;;;21.00;99.90;;;20.88;60.92;95678.75;10530033;28;2186;-76
2021/09/10 07:22:23;;;;;;;;;;;21.10;99.90;;;21.04;59.66;95685.13;10522466;28;2085;-76
2021/09/10 07:27:26;;;;;;;;;;;21.30;99.90;;;21.13;60.92;95681.47;10530324;28;2143;-77
2021/09/10 07:32:28;;;;;;;;;;;21.50;99.90;;;21.23;59.82;95679.06;10522127;28;2082;-75
2021/09/10 07:37:33;;;;;;;;;;;21.60;99.90;;;21.43;58.22;95685.53;10529035;28;2102;-75
2021/09/10 07:42:36;;;;;;;;;;;21.80;99.90;;;21.34;58.45;95684.88;10525964;28;2071;-75
2021/09/10 07:47:39;;;;;;;;;;;21.90;99.90;;;21.25;57.94;95684.19;10519313;28;2069;-76
2021/09/10 07:52:41;;;;;;;;;;;21.90;99.90;;;21.39;58.54;95681.94;10519890;28;2168;-77
2021/09/10 07:57:44;;;;;;;;;;;21.90;99.90;;;21.58;57.34;95687.56;10521437;28;2213;-76
2021/09/10 08:02:47;;;;;;;;;;;22.00;99.90;;;21.70;58.86;95685.97;10529794;28;2093;-76
2021/09/10 08:07:50;;;;;;;;;;;22.20;99.90;;;22.07;57.00;95686.59;10516879;28;2131;-81
2021/09/10 08:12:53;;;;;;;;;;;22.40;99.90;;;22.17;55.89;95688.06;10534215;28;2002;-77
2021/09/10 08:17:56;;;;;;;;;;;22.50;99.90;;;22.24;55.53;95688.25;10526611;28;2190;-77
2021/09/10 08:23:01;;;;;;;;;;;22.60;99.90;;;22.49;54.92;95688.91;10513563;28;2045;-73
2021/09/10 08:28:04;;;;;;;;;;;22.80;99.90;;;22.63;54.75;95698.28;10513781;28;2068;-74
2021/09/10 08:33:07;;;;;;;;;;;22.90;99.90;;;22.72;54.66;95702.81;10506326;28;2103;-74
2021/09/10 08:38:10;;;;;;;;;;;23.00;99.90;;;22.37;54.75;95704.25;10513352;28;2100;-74
2021/09/10 08:43:14;;;;;;;;;;;23.10;99.90;;;22.62;55.92;95710.41;10512689;28;2207;-75
2021/09/10 08:48:17;;;;;;;;;;;23.10;99.90;;;22.86;53.82;95708.66;10509318;28;2077;-74
2021/09/10 08:53:20;;;;;;;;;;;23.20;99.90;;;22.51;54.81;95703.84;10512292;28;2126;-75
2021/09/10 08:58:23;;;;;;;;;;;23.30;99.90;;;22.37;55.66;95715.22;10515954;28;1913;-74
2021/09/10 09:03:26;;;;;;;;;;;23.20;99.90;;;22.90;53.94;95713.09;10515188;28;1984;-75
2021/09/10 09:08:29;;;;;;;;;;;23.30;99.90;;;23.06;54.13;95713.09;10509486;28;2101;-75
2021/09/10 09:13:33;;;;;;;;;;;23.50;99.90;;;23.44;52.59;95703.38;10517122;28;2015;-74
2021/09/10 09:18:36;;;;;;;;;;;23.80;99.90;;;23.69;51.96;95696.53;10513061;28;2088;-73
2021/09/10 09:23:39;;;;;;;;;;;24.00;99.90;;;23.69;51.29;95690.25;10508487;28;2055;-73
2021/09/10 09:28:41;;;;;;;;;;;24.10;99.90;;;23.65;52.09;95703.88;10505910;28;2094;-73
2021/09/10 09:33:45;;;;;;;;;;;24.20;99.90;;;23.65;52.75;95695.63;10520125;28;2086;-74
2021/09/10 09:38:48;;;;;;;;;;;24.20;99.90;;;23.83;51.35;95696.03;10521677;28;2090;-75
2021/09/10 09:43:51;;;;;;;;;;;24.30;99.90;;;23.58;50.59;95695.47;10523703;28;2098;-74
2021/09/10 09:48:54;;;;;;;;;;;24.40;99.90;;;23.48;51.61;95696.03;10523217;28;1953;-74
2021/09/10 09:53:57;;;;;;;;;;;24.20;99.90;;;23.77;51.85;95699.41;10522475;28;2153;-73
2021/09/10 09:59:00;;;;;;;;;;;24.40;99.90;;;24.13;49.43;95688.00;10510335;28;2462;-73
2021/09/10 10:04:03;;;;;;;;;;;24.50;99.90;;;23.91;48.95;95691.47;10510895;28;2252;-73
2021/09/10 10:09:06;;;;;;;;;;;24.50;99.90;;;23.92;49.55;95690.31;10518271;28;2250;-73
2021/09/10 10:14:09;;;;;;;;;;;24.50;99.90;;;24.14;49.41;95686.06;10509038;28;2141;-73
2021/09/10 10:19:12;;;;;;;;;;;24.60;99.90;;;24.39;47.81;95683.81;10531454;28;1894;-75
2021/09/10 10:24:15;;;;;;;;;;;24.80;99.90;;;24.19;49.77;95675.56;10510924;28;2004;-74
2021/09/10 10:29:18;;;;;;;;;;;24.80;99.90;;;24.36;48.87;95676.28;10517130;28;2031;-74
2021/09/10 10:34:21;;;;;;;;;;;24.90;99.90;;;24.46;49.41;95684.72;10524182;28;2019;-74
2021/09/10 10:39:29;;;;;;;;;;;25.10;99.90;;;24.18;49.25;95679.47;10525986;28;1972;-74
2021/09/10 10:44:31;;;;;;;;;;;25.00;99.90;;;23.87;50.62;95657.69;10524491;28;2007;-73
2021/09/10 10:49:34;;;;;;;;;;;24.80;99.90;;;23.66;50.22;95661.56;10522543;28;2081;-74
2021/09/10 10:54:37;;;;;;;;;;;24.70;99.90;;;23.46;50.99;95660.72;10523608;28;2114;-74
2021/09/10 10:59:40;;;;;;;;;;;24.40;99.90;;;23.94;50.90;95653.13;10523227;28;1841;-74
2021/09/10 11:04:44;;;;;;;;;;;24.60;99.90;;;24.23;50.04;95648.94;10508577;28;2201;-75
2021/09/10 11:09:47;;;;;;;;;;;24.80;99.90;;;24.64;49.86;95646.56;10524891;28;2035;-75
2021/09/10 11:14:50;;;;;;;;;;;25.00;99.90;;;25.16;47.47;95647.81;10517010;28;2102;-75
2021/09/10 11:19:54;;;;;;;;;;;25.50;99.90;;;25.18;47.05;95650.19;10514791;28;2007;-74
2021/09/10 11:24:57;;;;;;;;;;;25.70;99.90;;;24.68;48.94;95644.66;10522500;28;1949;-73
2021/09/10 11:30:00;;;;;;;;;;;25.50;99.90;;;24.88;47.31;95633.59;10517249;28;2206;-74
2021/09/10 11:35:03;;;;;;;;;;;25.50;99.90;;;24.62;47.83;95631.59;10515856;28;2039;-74
2021/09/10 11:40:05;;;;;;;;;;;25.50;99.90;;;24.94;46.96;95640.34;10526382;28;2027;-74
2021/09/10 11:45:08;;;;;;;;;;;25.50;99.90;;;24.70;47.50;95634.09;10518134;28;2024;-74
2021/09/10 11:50:11;;;;;;;;;;;25.70;99.90;;;24.97;47.04;95631.38;10510064;28;2079;-74
2021/09/10 11:55:14;;;;;;;;;;;25.70;99.90;;;24.49;47.98;95629.06;10513533;28;2183;-75
2021/09/10 12:00:17;;;;;;;;;;;25.60;99.90;;;24.43;48.47;95626.94;10516810;28;2094;-74
2021/09/10 12:05:20;;;;;;;;;;;25.30;99.90;;;24.31;48.39;95621.63;10516350;28;2133;-74
2021/09/10 12:10:23;;;;;;;;;;;25.30;99.90;;;24.31;48.45;95616.13;10517343;28;1996;-75
2021/09/10 12:15:26;;;;;;;;;;;25.10;99.90;;;24.62;47.76;95617.84;10513367;28;2173;-74
2021/09/10 12:20:29;;;;;;;;;;;25.10;99.90;;;24.94;46.57;95605.44;10510041;28;2140;-75
2021/09/10 12:25:32;;;;;;;;;;;25.30;99.90;;;25.01;46.06;95610.25;10518999;28;2130;-74
2021/09/10 12:30:35;;;;;;;;;;;25.50;99.90;;;25.15;47.26;95609.69;10513190;28;2043;-74
2021/09/10 12:35:38;;;;;;;;;;;25.60;99.90;;;24.83;47.57;95611.94;10510528;28;2074;-75
2021/09/10 12:40:40;;;;;;;;;;;25.50;99.90;;;24.94;46.75;95607.34;10514502;28;2062;-75
2021/09/10 12:45:43;;;;;;;;;;;25.60;99.90;;;24.89;46.75;95607.69;10502140;28;2201;-75
2021/09/10 12:50:46;;;;;;;;;;;25.70;99.90;;;24.77;46.88;95606.72;10508822;28;2160;-74
2021/09/10 12:55:49;;;;;;;;;;;25.60;99.90;;;25.02;46.58;95603.56;10501515;28;2173;-74
2021/09/10 13:00:52;;;;;;;;;;;25.60;99.90;;;25.85;44.79;95593.31;10520969;28;1967;-74
2021/09/10 13:05:56;;;;;;;;;;;26.00;99.90;;;25.85;44.86;95589.75;10510385;28;2116;-75
2021/09/10 13:10:59;;;;;;;;;;;26.40;99.90;;;25.60;45.19;95586.69;10516766;28;1987;-74
2021/09/10 13:16:03;;;;;;;;;;;26.50;99.90;;;25.99;45.13;95591.88;10514280;28;2107;-75
2021/09/10 13:21:07;;;;;;;;;;;26.50;99.90;;;25.77;45.17;95580.63;10523398;28;2182;-74
2021/09/10 13:26:10;;;;;;;;;;;26.70;99.90;;;25.64;45.52;95576.53;10518651;28;2194;-74
2021/09/10 13:31:13;;;;;;;;;;;26.50;99.90;;;25.79;44.61;95570.03;10521292;28;2011;-74
2021/09/10 13:36:15;;;;;;;;;;;26.40;99.90;;;25.66;45.10;95574.19;10520428;28;2083;-74
2021/09/10 13:41:18;;;;;;;;;;;26.40;99.90;;;25.11;45.64;95568.38;10518688;28;2071;-75
2021/09/10 13:46:21;;;;;;;;;;;26.10;99.90;;;25.13;46.37;95573.47;10520598;28;2063;-74
2021/09/10 13:51:24;;;;;;;;;;;26.00;99.90;;;24.87;47.49;95572.31;10515455;28;2070;-74
2021/09/10 13:56:27;;;;;;;;;;;25.80;99.90;;;25.23;45.77;95564.59;10524115;28;2007;-75
2021/09/10 14:01:30;;;;;;;;;;;25.80;99.90;;;25.24;46.62;95563.44;10517338;28;2078;-73
2021/09/10 14:06:33;;;;;;;;;;;25.90;99.90;;;25.19;47.09;95561.00;10518868;28;2094;-76
2021/09/10 14:11:36;;;;;;;;;;;26.00;99.90;;;25.07;47.17;95570.28;10519585;28;2109;-74
2021/09/10 14:16:39;;;;;;;;;;;25.90;99.90;;;24.98;45.75;95561.47;10514580;28;1713;-74
2021/09/10 14:21:42;;;;;;;;;;;25.80;99.90;;;25.45;44.55;95563.72;10519224;28;2035;-74
2021/09/10 14:26:45;;;;;;;;;;;26.00;99.90;;;25.26;44.90;95561.91;10514825;28;1910;-74
2021/09/10 14:31:48;;;;;;;;;;;26.00;99.90;;;24.97;45.03;95554.38;10510117;28;2111;-73
2021/09/10 14:36:51;;;;;;;;;;;26.00;99.90;;;25.26;44.95;95556.41;10514488;28;2178;-74
2021/09/10 14:41:54;;;;;;;;;;;25.90;99.90;;;25.38;44.52;95551.81;10522618;28;1951;-75
2021/09/10 14:46:57;;;;;;;;;;;26.00;99.90;;;25.34;45.86;95554.53;10522873;28;2039;-75
2021/09/10 14:52:00;;;;;;;;;;;26.10;99.90;;;25.38;46.38;95546.31;10522640;28;1779;-75
2021/09/10 14:57:03;;;;;;;;;;;26.20;99.90;;;24.84;47.90;95551.06;10520182;28;2144;-73
2021/09/10 15:02:06;;;;;;;;;;;26.00;99.90;;;24.62;48.48;95549.16;10517016;28;2165;-74
2021/09/10 15:07:09;;;;;;;;;;;25.60;99.90;;;24.83;48.81;95548.69;10514572;28;2104;-75
2021/09/10 15:12:12;;;;;;;;;;;25.60;99.90;;;24.29;48.53;95547.81;10532365;28;2032;-74
2021/09/10 15:17:15;;;;;;;;;;;25.40;99.90;;;24.39;48.61;95552.72;10515941;28;2182;-74
2021/09/10 15:22:17;;;;;;;;;;;25.10;99.90;;;24.61;48.15;95548.34;10516150;28;2063;-74
2021/09/10 15:27:20;;;;;;;;;;;25.30;99.90;;;24.35;48.68;95551.09;10513697;28;2148;-74
2021/09/10 15:32:23;;;;;;;;;;;25.30;99.90;;;24.34;48.75;95555.00;10517133;28;2156;-74
2021/09/10 15:37:26;;;;;;;;;;;25.20;99.90;;;24.21;49.02;95552.41;10516336;28;2179;-74
2021/09/10 15:42:29;;;;;;;;;;;25.20;99.90;;;24.20;49.10;95550.81;10522159;28;2119;-76
2021/09/10 15:47:32;;;;;;;;;;;25.10;99.90;;;24.05;49.47;95559.16;10514586;28;2178;-73
2021/09/10 15:52:35;;;;;;;;;;;25.00;99.90;;;23.93;49.64;95557.41;10516502;28;2118;-75
2021/09/10 15:57:37;;;;;;;;;;;24.90;99.90;;;23.68;49.05;95551.44;10515570;28;2149;-75
2021/09/10 16:02:42;;;;;;;;;;;24.70;99.90;;;23.55;49.55;95553.53;10526434;28;2169;-75
2021/09/10 16:07:46;;;;;;;;;;;24.50;99.90;;;23.46;50.29;95550.19;10509702;28;2118;-75
2021/09/10 16:12:49;;;;;;;;;;;24.40;99.90;;;23.47;50.31;95540.81;10515619;28;1921;-75
2021/09/10 16:17:52;;;;;;;;;;;24.30;99.90;;;23.65;49.82;95544.72;10514230;28;2019;-74
2021/09/10 16:22:55;;;;;;;;;;;24.40;99.90;;;23.69;50.12;95545.59;10511170;28;2046;-75
2021/09/10 16:27:58;;;;;;;;;;;24.40;99.90;;;23.82;51.40;95556.41;10510957;28;2099;-75
2021/09/10 16:33:01;;;;;;;;;;;24.50;99.90;;;23.45;58.59;95563.13;10508101;28;2434;-76
2021/09/10 16:38:04;;;;;;;;;;;24.50;99.90;;;22.46;77.30;95567.19;10513454;28;2199;-75
2021/09/10 16:43:06;;;;;;;;;;;23.80;99.90;;;21.22;78.73;95568.13;10521703;28;2067;-75
2021/09/10 16:48:09;;;;;;;;;;;22.80;99.90;;;20.63;90.31;95582.38;10512924;28;2079;-75
2021/09/10 16:53:26;;;;;;;;;;;22.00;99.90;;;20.35;88.94;95581.41;10518288;28;2018;-74
2021/09/10 16:58:28;;;;;;;;;;;21.60;99.90;;;20.15;93.60;95588.56;10517131;28;2094;-74
2021/09/10 17:03:31;;;;;;;;;;;21.30;99.90;;;20.09;90.21;95589.91;10523590;28;2047;-74
2021/09/10 17:08:35;;;;;;;;;;;21.20;99.90;;;19.83;92.68;95588.25;10515002;28;1992;-74
2021/09/10 17:13:37;;;;;;;;;;;21.00;99.90;;;19.44;94.64;95592.31;10504689;28;2082;-74
2021/09/10 17:18:40;;;;;;;;;;;20.70;99.90;;;19.18;93.65;95597.97;10515071;28;2027;-74
2021/09/10 17:23:43;;;;;;;;;;;20.40;99.90;;;19.00;93.88;95600.03;10516010;28;2035;-74
2021/09/10 17:28:46;;;;;;;;;;;20.20;99.90;;;18.94;94.33;95592.38;10507217;28;1980;-74
2021/09/10 17:33:49;;;;;;;;;;;20.00;99.90;;;18.96;92.10;95590.13;10510368;28;2047;-74
2021/09/10 17:38:52;;;;;;;;;;;20.00;99.90;;;19.11;91.17;95593.06;10513650;28;2094;-74
2021/09/10 17:43:55;;;;;;;;;;;20.00;99.90;;;19.12;94.01;95596.56;10516060;28;1925;-74
2021/09/10 17:48:57;;;;;;;;;;;20.00;99.90;;;18.88;94.56;95606.19;10511358;28;2094;-74
2021/09/10 17:54:00;;;;;;;;;;;20.00;99.90;;;18.87;95.43;95614.69;10508844;28;2070;-74
2021/09/10 17:59:03;;;;;;;;;;;19.90;99.90;;;18.82;96.69;95629.28;10508280;28;2027;-74
2021/09/10 18:04:06;;;;;;;;;;;19.80;99.90;;;18.80;98.01;95644.38;10515913;28;2390;-74
2021/09/10 18:09:09;;;;;;;;;;;19.80;99.90;;;18.99;97.98;95660.28;10518158;28;2147;-74
2021/09/10 18:14:12;;;;;;;;;;;19.80;99.90;;;19.01;99.09;95668.91;10513438;28;1976;-74
2021/09/10 18:19:15;;;;;;;;;;;19.90;99.90;;;19.08;98.08;95670.00;10516430;28;1975;-74
2021/09/10 18:24:18;;;;;;;;;;;19.90;99.90;;;19.14;99.14;95674.13;10516740;28;2031;-74
2021/09/10 18:29:21;;;;;;;;;;;20.00;99.90;;;19.12;99.75;95684.56;10508389;28;1988;-74
2021/09/10 18:34:24;;;;;;;;;;;20.00;99.90;;;19.06;100.00;95690.53;10519392;28;2062;-74
2021/09/10 18:39:26;;;;;;;;;;;20.00;99.90;;;18.94;100.00;95706.78;10526213;28;1936;-74
2021/09/10 18:44:29;;;;;;;;;;;20.00;99.90;;;18.83;100.00;95704.44;10523012;28;2054;-74
2021/09/10 18:49:32;;;;;;;;;;;19.90;99.90;;;18.82;100.00;95711.00;10520095;28;1978;-74
2021/09/10 18:54:35;;;;;;;;;;;19.80;99.90;;;18.87;100.00;95723.63;10516811;28;2003;-73
2021/09/10 18:59:40;;;;;;;;;;;19.80;99.90;;;18.81;100.00;95730.38;10518794;28;2023;-74
2021/09/10 19:04:43;;;;;;;;;;;19.80;99.90;;;18.77;99.12;95737.63;10517192;28;1881;-73
2021/09/10 19:09:48;;;;;;;;;;;19.70;99.90;;;18.70;95.61;95738.09;10517754;28;2051;-74
2021/09/10 19:14:51;;;;;;;;;;;19.70;99.90;;;18.66;94.35;95750.75;10518424;28;2039;-73
2021/09/10 19:19:53;;;;;;;;;;;19.60;99.90;;;18.52;93.81;95755.63;10509553;28;2031;-73
2021/09/10 19:24:56;;;;;;;;;;;19.50;99.90;;;18.41;94.89;95759.78;10520506;28;1865;-73
2021/09/10 19:29:59;;;;;;;;;;;19.40;99.90;;;18.37;93.50;95759.63;10516809;28;2200;-73
2021/09/10 19:35:02;;;;;;;;;;;19.30;99.90;;;18.26;93.72;95761.91;10520346;28;2031;-73
2021/09/10 19:40:05;;;;;;;;;;;19.20;99.90;;;18.21;92.30;95753.91;10527016;28;1854;-74
2021/09/10 19:45:08;;;;;;;;;;;19.20;99.90;;;18.10;94.36;95750.72;10520471;28;2095;-74
2021/09/10 19:50:11;;;;;;;;;;;19.10;99.90;;;18.03;94.64;95749.59;10513733;28;2111;-73
2021/09/10 19:55:14;;;;;;;;;;;19.00;99.90;;;17.95;94.24;95748.50;10508836;28;1853;-73
2021/09/10 20:00:16;;;;;;;;;;;19.00;99.90;;;17.96;95.41;95755.53;10516433;28;2117;-73
2021/09/10 20:05:19;;;;;;;;;;;18.90;99.90;;;17.81;95.75;95759.56;10512247;28;1842;-73
2021/09/10 20:10:22;;;;;;;;;;;18.80;99.90;;;17.83;96.69;95770.09;10511478;28;2080;-74
2021/09/10 20:15:25;;;;;;;;;;;18.80;99.90;;;17.71;95.96;95781.59;10509814;28;2098;-73
2021/09/10 20:20:29;;;;;;;;;;;18.80;99.90;;;17.68;95.36;95782.19;10515483;28;2114;-74
2021/09/10 20:25:32;;;;;;;;;;;18.70;99.90;;;17.69;92.84;95783.03;10525872;28;1846;-73
2021/09/10 20:30:35;;;;;;;;;;;18.70;99.90;;;17.68;93.04;95792.25;10529189;28;2015;-73
2021/09/10 20:35:38;;;;;;;;;;;18.70;99.90;;;17.53;91.83;95788.09;10541148;28;1815;-73
2021/09/10 20:40:40;;;;;;;;;;;18.60;99.90;;;17.42;89.95;95789.50;10548859;28;3277;-72
2021/09/10 20:45:43;;;;;;;;;;;18.50;99.90;;;17.35;88.80;95783.75;10548856;28;2174;-73
2021/09/10 20:50:46;;;;;;;;;;;18.40;99.90;;;17.33;90.13;95791.41;10550329;28;2007;-73
2021/09/10 20:55:49;;;;;;;;;;;18.30;99.90;;;17.27;87.18;95791.56;10530007;28;2318;-74
2021/09/10 21:00:52;;;;;;;;;;;18.30;99.90;;;17.25;87.83;95791.09;10512592;28;2143;-74
2021/09/10 21:05:55;;;;;;;;;;;18.20;99.90;;;17.41;85.70;95791.44;10510882;28;2103;-73
2021/09/10 21:10:58;;;;;;;;;;;18.30;99.90;;;17.54;84.15;95792.41;10504477;28;2210;-73
2021/09/10 21:16:01;;;;;;;;;;;18.40;99.90;;;17.65;83.94;95803.78;10509095;28;2319;-73
2021/09/10 21:21:03;;;;;;;;;;;18.50;99.90;;;17.58;84.82;95801.53;10511268;28;2042;-73
2021/09/10 21:26:06;;;;;;;;;;;18.50;99.90;;;17.35;86.29;95802.75;10519811;28;2163;-74
2021/09/10 21:31:10;;;;;;;;;;;18.40;99.90;;;17.39;85.91;95806.47;10525573;28;2093;-73
2021/09/10 21:36:13;;;;;;;;;;;18.40;99.90;;;17.33;86.23;95807.72;10539265;28;2114;-72
2021/09/10 21:41:16;;;;;;;;;;;18.30;99.90;;;17.36;85.82;95812.50;10547271;28;2115;-73
2021/09/10 21:46:18;;;;;;;;;;;18.30;99.90;;;17.42;85.57;95816.69;10528743;28;2134;-73
2021/09/10 21:51:21;;;;;;;;;;;18.30;99.90;;;17.48;86.27;95820.84;10522248;28;2200;-73
2021/09/10 21:56:24;;;;;;;;;;;18.40;99.90;;;17.26;87.03;95819.03;10525661;28;2042;-73
2021/09/10 22:01:27;;;;;;;;;;;18.30;99.90;;;17.34;86.97;95825.63;10516508;28;2147;-73
2021/09/10 22:06:31;;;;;;;;;;;18.20;99.90;;;17.37;87.20;95831.22;10512224;28;2087;-73
2021/09/10 22:11:33;;;;;;;;;;;18.20;99.90;;;17.40;86.91;95838.75;10517178;28;2338;-73
2021/09/10 22:16:36;;;;;;;;;;;18.30;99.90;;;17.47;86.65;95839.06;10522198;28;2093;-73
2021/09/10 22:21:39;;;;;;;;;;;18.30;99.90;;;17.64;86.02;95843.75;10512790;28;2081;-72
2021/09/10 22:26:42;;;;;;;;;;;18.40;99.90;;;17.69;85.67;95854.50;10520708;28;2077;-73
2021/09/10 22:31:45;;;;;;;;;;;18.50;99.90;;;17.57;86.65;95851.59;10523515;28;2120;-73
2021/09/10 22:36:48;;;;;;;;;;;18.50;99.90;;;17.64;86.86;95853.84;10514640;28;2082;-73
2021/09/10 22:41:50;;;;;;;;;;;18.40;99.90;;;17.54;87.96;95852.19;10520391;28;2082;-73
2021/09/10 22:46:53;;;;;;;;;;;18.40;99.90;;;17.68;87.59;95857.50;10518729;28;2086;-74
2021/09/10 22:51:56;;;;;;;;;;;18.50;99.90;;;17.72;86.69;95858.53;10515382;28;2206;-74
2021/09/10 22:56:59;;;;;;;;;;;18.60;99.90;;;17.75;86.80;95857.88;10507179;28;2198;-74
2021/09/10 23:02:02;;;;;;;;;;;18.60;99.90;;;17.76;86.59;95854.84;10514054;28;2250;-72
2021/09/10 23:07:05;;;;;;;;;;;18.60;99.90;;;17.78;87.21;95857.25;10517065;28;2186;-74
2021/09/10 23:12:08;;;;;;;;;;;18.60;99.90;;;17.75;87.13;95860.59;10521196;28;2167;-73